Time;durP1;ratioP1;P1;durP2;ratioP2;P2;SDS_P1;SDS_P2;PMS_P1;PMS_P2;Temp;Humidity;BMP_temperature;BMP_pressure;BME280_temperature;BME280_humidity;BME280_pressure;Samples;Min_cycle;Max_cycle;Signal;HPM_P1;HPM_P2
2022/09/24 00:01:55;;;;;;;25.85;20.95;;;;;;;13.41;100.00;101177.75;5070248;28;20063;-47
2022/09/24 00:04:26;;;;;;;27.55;20.70;;;;;;;13.41;100.00;101172.47;5071380;28;20044;-51
2022/09/24 00:06:54;;;;;;;27.08;20.80;;;;;;;13.41;100.00;101183.03;5071978;28;20052;-50
2022/09/24 00:09:23;;;;;;;27.77;19.23;;;;;;;13.39;100.00;101169.94;5071532;28;20436;-51
2022/09/24 00:11:52;;;;;;;28.30;20.60;;;;;;;13.37;100.00;101168.34;5071246;28;20064;-48
2022/09/24 00:14:20;;;;;;;24.77;19.80;;;;;;;13.46;100.00;101167.69;5071382;28;20135;-51
2022/09/24 00:16:48;;;;;;;24.75;20.35;;;;;;;13.48;100.00;101165.75;5069973;28;20139;-51
2022/09/24 00:19:17;;;;;;;24.13;19.73;;;;;;;13.43;100.00;101165.25;5071418;28;20048;-53
2022/09/24 00:21:45;;;;;;;26.90;20.10;;;;;;;13.46;100.00;101165.06;5071374;28;20051;-52
2022/09/24 00:26:48;;;;;;;23.20;19.45;;;;;;;13.43;100.00;101155.53;5071229;28;20044;-48
2022/09/24 00:27:05;;;;;;;26.20;18.83;;;;;;;13.45;100.00;101155.44;5070374;28;20052;-52
2022/09/24 00:29:34;;;;;;;26.30;19.45;;;;;;;13.48;100.00;101155.19;5071056;28;20041;-52
2022/09/24 00:32:04;;;;;;;28.00;20.75;;;;;;;13.40;100.00;101154.91;5069181;28;20075;-52
2022/09/24 00:34:33;;;;;;;26.73;20.35;;;;;;;13.38;100.00;101151.56;5071086;28;20052;-53
2022/09/24 00:37:01;;;;;;;24.33;19.35;;;;;;;13.35;100.00;101150.81;5071519;28;20056;-53
2022/09/24 00:39:31;;;;;;;26.80;19.60;;;;;;;13.39;100.00;101153.22;5071538;28;20040;-49
2022/09/24 00:41:59;;;;;;;26.08;20.40;;;;;;;13.39;100.00;101150.56;5070546;28;20511;-51
2022/09/24 00:45:01;;;;;;;27.48;20.42;;;;;;;13.45;100.00;101144.88;5071452;28;20071;-51
2022/09/24 00:47:33;;;;;;;29.88;20.50;;;;;;;13.45;100.00;101150.16;5070053;28;20041;-50
2022/09/24 00:50:16;;;;;;;25.33;18.95;;;;;;;13.47;100.00;101145.56;5071125;28;20059;-51
2022/09/24 00:52:48;;;;;;;27.50;19.27;;;;;;;13.42;100.00;101143.28;5071098;28;20135;-51
2022/09/24 00:55:18;;;;;;;26.13;19.67;;;;;;;13.39;100.00;101138.22;5070868;28;20048;-52
2022/09/24 00:57:48;;;;;;;26.58;20.00;;;;;;;13.37;100.00;101139.28;5070283;28;20094;-50
2022/09/24 01:00:19;;;;;;;25.92;19.30;;;;;;;13.31;100.00;101143.19;5070671;28;20717;-52
2022/09/24 01:02:50;;;;;;;25.90;20.15;;;;;;;13.29;100.00;101140.66;5068906;28;20063;-52
2022/09/24 01:05:18;;;;;;;26.27;19.88;;;;;;;13.27;100.00;101129.34;5070641;28;20059;-54
2022/09/24 01:07:47;;;;;;;27.25;20.20;;;;;;;13.30;100.00;101129.13;5071045;28;20071;-53
2022/09/24 01:10:46;;;;;;;28.55;21.38;;;;;;;13.26;100.00;101134.75;5069472;28;20052;-51
2022/09/24 01:13:18;;;;;;;26.48;20.67;;;;;;;13.20;100.00;101133.41;5069459;28;20396;-52
2022/09/24 01:15:54;;;;;;;28.45;21.05;;;;;;;13.19;100.00;101121.97;5069852;28;20044;-52
2022/09/24 01:18:35;;;;;;;27.98;20.35;;;;;;;13.16;100.00;101119.56;5069640;28;20047;-50
2022/09/24 01:21:15;;;;;;;29.40;20.90;;;;;;;13.18;100.00;101122.94;5070016;28;20054;-49
2022/09/24 01:24:16;;;;;;;30.20;21.95;;;;;;;13.21;100.00;101113.09;5070911;28;20090;-52
2022/09/24 01:27:01;;;;;;;28.75;21.17;;;;;;;13.21;100.00;101113.97;5070013;28;20048;-52
2022/09/24 01:29:44;;;;;;;27.60;20.48;;;;;;;13.22;100.00;101109.50;5070808;28;20490;-53
2022/09/24 01:32:18;;;;;;;27.40;21.37;;;;;;;13.18;100.00;101111.53;5067817;28;20372;-52
2022/09/24 01:34:52;;;;;;;28.85;21.30;;;;;;;13.18;100.00;101100.97;5070454;28;20048;-54
2022/09/24 01:37:23;;;;;;;29.05;21.50;;;;;;;13.14;100.00;101099.50;5070089;28;20056;-53
2022/09/24 01:39:55;;;;;;;30.20;23.25;;;;;;;13.08;100.00;101099.94;5070304;28;20053;-51
2022/09/24 01:42:26;;;;;;;32.08;22.40;;;;;;;13.06;100.00;101094.78;5069715;28;20491;-52
2022/09/24 01:44:57;;;;;;;29.73;21.88;;;;;;;13.08;100.00;101095.50;5070190;28;20067;-52
2022/09/24 01:47:31;;;;;;;30.52;22.65;;;;;;;13.05;100.00;101094.88;5068449;28;20052;-53
2022/09/24 01:50:04;;;;;;;30.77;23.63;;;;;;;13.05;100.00;101089.59;5070216;28;20072;-52
2022/09/24 01:52:39;;;;;;;35.13;25.40;;;;;;;13.04;100.00;101091.41;5069800;28;20048;-53
2022/09/24 01:55:10;;;;;;;33.40;24.05;;;;;;;13.01;100.00;101089.81;5069560;28;20568;-53
2022/09/24 01:57:42;;;;;;;33.30;24.35;;;;;;;13.06;100.00;101086.00;5069485;28;20044;-52
2022/09/24 02:00:15;;;;;;;35.80;25.23;;;;;;;13.07;100.00;101085.06;5069748;28;20499;-53
2022/09/24 02:02:46;;;;;;;32.85;24.33;;;;;;;12.88;100.00;101082.88;5068312;28;20387;-52
2022/09/24 02:05:22;;;;;;;32.03;23.35;;;;;;;12.98;100.00;101076.84;5069572;28;20468;-53
2022/09/24 02:07:58;;;;;;;34.78;24.20;;;;;;;12.95;100.00;101073.56;5069824;28;20379;-53
2022/09/24 02:10:31;;;;;;;34.17;23.55;;;;;;;12.96;100.00;101070.81;5067852;28;20082;-52
2022/09/24 02:13:06;;;;;;;32.15;24.40;;;;;;;12.94;100.00;101072.72;5069679;28;20052;-52
2022/09/24 02:15:41;;;;;;;29.88;21.60;;;;;;;12.92;100.00;101071.16;5069532;28;20488;-52
2022/09/24 02:18:14;;;;;;;30.77;22.58;;;;;;;12.99;100.00;101069.75;5067982;28;20052;-52
2022/09/24 02:20:47;;;;;;;29.30;22.48;;;;;;;12.99;100.00;101075.03;5070003;28;20047;-53
2022/09/24 02:23:17;;;;;;;;;;;;;;;12.93;100.00;101068.41;5074068;28;20041;-53
2022/09/24 02:25:52;;;;;;;29.38;21.88;;;;;;;12.91;100.00;101065.03;5073922;28;19927;-53
2022/09/24 02:28:21;;;;;;;31.27;22.17;;;;;;;12.85;100.00;101068.09;5073345;28;20147;-55
2022/09/24 02:30:55;;;;;;;28.63;21.13;;;;;;;12.92;100.00;101064.06;5072651;28;20565;-55
2022/09/24 02:36:17;;;;;;;27.52;20.60;;;;;;;12.92;100.00;101061.44;5073478;28;20499;-53
2022/09/24 02:38:46;;;;;;;27.35;20.80;;;;;;;12.98;100.00;101062.81;5105732;28;20102;-52
2022/09/24 02:41:14;;;;;;;25.65;19.35;;;;;;;12.96;100.00;101060.25;5072420;28;20103;-55
2022/09/24 02:43:43;;;;;;;26.88;20.13;;;;;;;12.97;100.00;101058.47;5072967;28;20555;-55
2022/09/24 02:46:12;;;;;;;26.52;19.98;;;;;;;12.85;100.00;101054.91;5071644;28;20071;-55
2022/09/24 02:48:40;;;;;;;26.92;20.58;;;;;;;12.83;100.00;101052.38;5072890;28;20495;-54
2022/09/24 02:51:09;;;;;;;26.70;20.42;;;;;;;12.79;100.00;101058.84;5072119;28;20060;-55
2022/09/24 02:53:37;;;;;;;26.70;19.33;;;;;;;12.82;100.00;101057.78;5073411;28;20052;-54
2022/09/24 02:56:06;;;;;;;26.42;20.30;;;;;;;12.75;100.00;101049.44;5072737;28;20047;-55
2022/09/24 02:58:36;;;;;;;26.52;20.08;;;;;;;12.83;100.00;101048.91;5073284;28;20114;-52
2022/09/24 03:01:05;;;;;;;26.85;20.52;;;;;;;12.83;100.00;101051.56;5071493;28;20044;-52
2022/09/24 03:03:34;;;;;;;24.52;20.02;;;;;;;12.81;100.00;101050.81;5072695;28;20527;-52
2022/09/24 03:06:03;;;;;;;26.90;19.40;;;;;;;12.83;100.00;101051.56;5073551;28;20109;-53
2022/09/24 03:08:31;;;;;;;25.50;19.70;;;;;;;12.84;100.00;101050.56;5073271;28;20456;-54
2022/09/24 03:11:00;;;;;;;25.00;18.67;;;;;;;12.88;100.00;101049.41;5073043;28;20045;-52
2022/09/24 03:13:28;;;;;;;25.75;18.58;;;;;;;12.92;100.00;101053.50;5073082;28;20426;-50
2022/09/24 03:15:56;;;;;;;25.13;18.40;;;;;;;12.85;100.00;101049.63;5070667;28;20083;-53
2022/09/24 03:18:24;;;;;;;23.90;18.30;;;;;;;12.83;100.00;101048.91;5072124;28;20469;-51
2022/09/24 03:20:58;;;;;;;25.67;18.15;;;;;;;12.93;100.00;101049.09;5072475;28;20051;-50
2022/09/24 03:23:26;;;;;;;26.13;18.20;;;;;;;12.90;100.00;101047.50;5072765;28;20036;-50
2022/09/24 03:25:54;;;;;;;26.60;17.60;;;;;;;12.82;100.00;101037.50;5072613;28;20577;-51
2022/09/24 03:28:26;;;;;;;21.77;16.98;;;;;;;12.85;100.00;101039.06;5072483;28;20044;-51
2022/09/24 03:30:59;;;;;;;24.45;17.88;;;;;;;12.89;100.00;101031.78;5071644;28;20072;-51
2022/09/24 03:33:29;;;;;;;23.50;17.10;;;;;;;12.89;100.00;101032.63;5070246;28;20053;-51
2022/09/24 03:36:01;;;;;;;23.60;16.73;;;;;;;12.89;100.00;101029.16;5072689;28;20044;-52
2022/09/24 03:38:30;;;;;;;22.33;17.40;;;;;;;12.92;100.00;101024.47;5072942;28;20052;-51
2022/09/24 03:40:59;;;;;;;23.50;16.92;;;;;;;12.93;100.00;101028.81;5072339;28;20102;-51
2022/09/24 03:43:28;;;;;;;21.70;15.85;;;;;;;12.94;100.00;101024.34;5072369;28;20433;-52
2022/09/24 03:45:56;;;;;;;20.15;15.80;;;;;;;12.90;100.00;101030.81;5071251;28;20556;-53
2022/09/24 03:48:25;;;;;;;22.13;16.48;;;;;;;12.89;100.00;101029.16;5071436;28;20507;-52
2022/09/24 03:50:54;;;;;;;23.02;15.85;;;;;;;12.88;100.00;101033.56;5071925;28;20044;-51
2022/09/24 03:53:23;;;;;;;22.90;15.70;;;;;;;12.87;100.00;101029.25;5072126;28;20503;-50
2022/09/24 03:55:55;;;;;;;21.90;16.30;;;;;;;12.90;100.00;101029.03;5072043;28;20052;-50
2022/09/24 03:58:24;;;;;;;24.15;15.50;;;;;;;12.92;100.00;101028.91;5071955;28;20094;-50
2022/09/24 04:00:53;;;;;;;20.30;15.15;;;;;;;12.93;100.00;101022.69;5071355;28;20089;-53
2022/09/24 04:03:21;;;;;;;20.42;15.82;;;;;;;12.83;100.00;101020.72;5071043;28;20063;-53
2022/09/24 04:05:50;;;;;;;20.88;15.52;;;;;;;12.83;100.00;101017.25;5071569;28;20121;-51
2022/09/24 04:08:19;;;;;;;19.33;15.27;;;;;;;12.84;100.00;101018.91;5071403;28;20048;-52
2022/09/24 04:10:50;;;;;;;21.42;15.23;;;;;;;12.88;100.00;101009.81;5071876;28;20040;-53
2022/09/24 04:13:19;;;;;;;20.92;15.75;;;;;;;12.87;100.00;101016.06;5070952;28;20056;-51
2022/09/24 04:15:47;;;;;;;21.50;16.88;;;;;;;12.84;100.00;101019.75;5071273;28;20052;-52
2022/09/24 04:18:16;;;;;;;21.80;15.52;;;;;;;12.82;100.00;101015.53;5070404;28;20094;-52
2022/09/24 04:20:44;;;;;;;22.05;15.68;;;;;;;12.89;100.00;101024.69;5071521;28;20123;-53
2022/09/24 04:23:12;;;;;;;20.60;15.10;;;;;;;12.89;100.00;101013.31;5071112;28;20467;-51
2022/09/24 04:25:41;;;;;;;20.00;15.35;;;;;;;12.88;100.00;101008.97;5071793;28;20040;-53
2022/09/24 04:28:10;;;;;;;21.15;15.88;;;;;;;12.87;100.00;101012.56;5069486;28;20060;-54
2022/09/24 04:30:39;;;;;;;22.73;15.32;;;;;;;12.79;100.00;101013.13;5071561;28;20040;-54
2022/09/24 04:33:08;;;;;;;19.67;15.68;;;;;;;12.84;100.00;101013.63;5069749;28;20044;-53
2022/09/24 04:35:37;;;;;;;20.52;15.13;;;;;;;12.84;100.00;101013.63;5071248;28;20871;-55
2022/09/24 04:38:06;;;;;;;21.67;15.52;;;;;;;12.83;100.00;101011.97;5071326;28;20044;-54
2022/09/24 04:40:34;;;;;;;20.63;16.23;;;;;;;12.82;100.00;101010.28;5071503;28;20033;-54
2022/09/24 04:43:04;;;;;;;23.67;17.23;;;;;;;12.83;100.00;101012.78;5070039;28;20090;-56
2022/09/24 04:45:34;;;;;;;23.20;16.05;;;;;;;12.84;100.00;101008.34;5070128;28;20493;-53
2022/09/24 04:48:02;;;;;;;23.50;16.70;;;;;;;12.82;100.00;101007.63;5069448;28;20605;-54
2022/09/24 04:50:32;;;;;;;23.20;16.85;;;;;;;12.82;100.00;101007.63;5070949;28;20040;-54
2022/09/24 04:53:01;;;;;;;22.17;16.67;;;;;;;12.81;100.00;101003.28;5070986;28;20059;-55
2022/09/24 04:55:30;;;;;;;23.90;17.38;;;;;;;12.80;100.00;101006.88;5071099;28;20120;-53
2022/09/24 04:57:59;;;;;;;22.50;17.30;;;;;;;12.84;100.00;101005.72;5070613;28;20131;-54
2022/09/24 05:00:31;;;;;;;23.15;17.60;;;;;;;12.81;100.00;101008.56;5070577;28;20131;-53
2022/09/24 05:03:05;;;;;;;25.23;19.27;;;;;;;12.78;100.00;101008.81;5068999;28;20052;-55
2022/09/24 05:05:35;;;;;;;23.55;17.52;;;;;;;12.75;100.00;101014.28;5070688;28;20045;-54
2022/09/24 05:08:06;;;;;;;24.60;17.52;;;;;;;12.78;100.00;101012.28;5070728;28;20044;-53
2022/09/24 05:10:34;;;;;;;23.77;17.85;;;;;;;12.80;100.00;101014.81;5070732;28;20102;-52
2022/09/24 05:13:02;;;;;;;23.70;17.85;;;;;;;12.78;100.00;101014.09;5069894;28;20099;-51
2022/09/24 05:15:30;;;;;;;24.52;17.63;;;;;;;12.76;100.00;101010.69;5070556;28;20402;-51
2022/09/24 05:17:59;;;;;;;23.98;18.08;;;;;;;12.78;100.00;101016.72;5068748;28;20040;-52
2022/09/24 05:20:28;;;;;;;25.13;19.00;;;;;;;12.83;100.00;101014.59;5070582;28;20163;-51
2022/09/24 05:22:56;;;;;;;27.20;19.48;;;;;;;12.77;100.00;101012.38;5070619;28;20071;-53
2022/09/24 05:25:24;;;;;;;23.67;18.00;;;;;;;12.79;100.00;101016.59;5071247;28;20045;-54
2022/09/24 05:27:53;;;;;;;25.48;17.85;;;;;;;12.82;100.00;101015.53;5069397;28;20048;-55
2022/09/24 05:30:23;;;;;;;28.45;18.65;;;;;;;12.79;100.00;101018.41;5070246;28;20044;-54
2022/09/24 05:32:52;;;;;;;24.00;18.27;;;;;;;12.79;100.00;101010.50;5068288;28;20090;-54
2022/09/24 05:35:21;;;;;;;25.50;17.80;;;;;;;12.81;100.00;101012.03;5068714;28;20054;-54
2022/09/24 05:37:52;;;;;;;25.05;18.30;;;;;;;12.78;100.00;101008.81;5070582;28;20110;-54
2022/09/24 05:43:07;;;;;;;24.42;18.83;;;;;;;12.82;100.00;101018.19;5069395;28;20045;-53
2022/09/24 05:45:35;;;;;;;24.38;17.77;;;;;;;12.80;100.00;101017.44;5070428;28;20098;-53
2022/09/24 05:48:03;;;;;;;24.27;18.95;;;;;;;12.78;100.00;101017.56;5067892;28;20044;-53
2022/09/24 05:50:33;;;;;;;26.40;19.20;;;;;;;12.78;100.00;101020.19;5069981;28;20131;-56
2022/09/24 05:53:04;;;;;;;24.88;19.02;;;;;;;12.87;100.00;101021.34;5070334;28;20044;-55
2022/09/24 05:55:33;;;;;;;26.80;19.20;;;;;;;12.78;100.00;101025.47;5070155;28;20395;-54
2022/09/24 05:58:06;;;;;;;27.58;19.13;;;;;;;12.80;100.00;101025.34;5069757;28;20064;-54
2022/09/24 06:00:34;;;;;;;;;;;;;;;12.80;100.00;101026.22;5070809;28;20487;-54
2022/09/24 06:03:06;;;;;;;24.75;18.20;;;;;;;12.84;100.00;101030.31;5068339;28;19921;-53
2022/09/24 06:05:35;;;;;;;25.80;18.63;;;;;;;12.85;100.00;101031.16;5069833;28;20127;-49
2022/09/24 06:08:07;;;;;;;24.98;18.40;;;;;;;12.79;100.00;101031.63;5069727;28;20101;-55
2022/09/24 06:10:36;;;;;;;23.83;19.17;;;;;;;12.77;100.00;101029.06;5069786;28;20094;-54
2022/09/24 06:13:04;;;;;;;25.35;19.27;;;;;;;12.79;100.00;101032.44;5068960;28;20041;-54
2022/09/24 06:15:33;;;;;;;25.92;18.95;;;;;;;12.83;100.00;101035.72;5069748;28;20377;-54
2022/09/24 06:18:01;;;;;;;26.45;20.00;;;;;;;12.80;100.00;101036.78;5068197;28;20110;-56
2022/09/24 06:20:30;;;;;;;26.33;18.63;;;;;;;12.77;100.00;101030.88;5069487;28;20521;-55
2022/09/24 06:22:58;;;;;;;25.95;18.23;;;;;;;12.80;100.00;101038.56;5069881;28;20056;-54
2022/09/24 06:25:28;;;;;;;24.73;18.27;;;;;;;12.82;100.00;101036.66;5069313;28;20072;-55
2022/09/24 06:27:59;;;;;;;25.40;19.77;;;;;;;12.72;100.00;101035.63;5069210;28;20087;-54
2022/09/24 06:30:29;;;;;;;26.58;20.05;;;;;;;12.75;100.00;101035.38;5069940;28;20784;-55
2022/09/24 06:33:03;;;;;;;24.42;19.25;;;;;;;12.83;100.00;101043.63;5068227;28;20091;-54
2022/09/24 06:35:33;;;;;;;25.85;20.10;;;;;;;12.80;100.00;101034.13;5069653;28;20048;-54
2022/09/24 06:38:02;;;;;;;25.00;19.17;;;;;;;12.79;100.00;101042.16;5069971;28;20048;-53
2022/09/24 06:40:32;;;;;;;26.08;18.52;;;;;;;12.80;100.00;101043.81;5069669;28;20534;-54
2022/09/24 06:43:04;;;;;;;23.67;18.73;;;;;;;12.82;100.00;101047.22;5068551;28;20039;-53
2022/09/24 06:45:33;;;;;;;23.92;18.42;;;;;;;12.83;100.00;101048.91;5069798;28;20075;-52
2022/09/24 06:48:03;;;;;;;26.35;19.08;;;;;;;12.81;100.00;101051.63;5068680;28;20053;-55
2022/09/24 06:50:33;;;;;;;24.00;18.42;;;;;;;12.85;100.00;101050.47;5069984;28;20044;-53
2022/09/24 06:53:05;;;;;;;26.42;18.63;;;;;;;12.82;100.00;101052.50;5070237;28;20044;-54
2022/09/24 06:55:35;;;;;;;26.10;18.85;;;;;;;12.82;100.00;101052.50;5070445;28;20534;-55
2022/09/24 06:58:05;;;;;;;27.88;19.73;;;;;;;12.79;100.00;101063.28;5069619;28;20054;-54
2022/09/24 07:00:35;;;;;;;24.65;18.92;;;;;;;12.82;100.00;101058.59;5068984;28;20438;-52
2022/09/24 07:03:03;;;;;;;27.23;19.17;;;;;;;12.75;100.00;101061.78;5066989;28;20040;-52
2022/09/24 07:05:32;;;;;;;23.25;18.50;;;;;;;12.81;100.00;101058.72;5069282;28;20098;-54
2022/09/24 07:08:03;;;;;;;24.60;18.98;;;;;;;12.80;100.00;101055.25;5069508;28;20450;-54
2022/09/24 07:10:31;;;;;;;23.35;18.13;;;;;;;12.82;100.00;101061.25;5072552;28;20410;-54
2022/09/24 07:13:00;;;;;;;24.27;17.77;;;;;;;12.87;100.00;101060.94;5072050;28;20067;-54
2022/09/24 07:15:28;;;;;;;24.27;19.10;;;;;;;12.82;100.00;101057.78;5072859;28;20136;-55
2022/09/24 07:17:57;;;;;;;22.45;18.45;;;;;;;12.78;100.00;101059.78;5071350;28;20054;-54
2022/09/24 07:20:27;;;;;;;25.98;17.98;;;;;;;12.83;100.00;101054.19;5072542;28;20052;-54
2022/09/24 07:22:55;;;;;;;23.02;17.67;;;;;;;12.92;100.00;101057.97;5071828;28;20131;-53
2022/09/24 07:25:24;;;;;;;24.23;17.33;;;;;;;12.93;100.00;101065.75;5072779;28;20396;-52
2022/09/24 07:27:52;;;;;;;24.67;17.50;;;;;;;12.90;100.00;101070.41;5072014;28;20052;-53
2022/09/24 07:30:24;;;;;;;22.50;17.23;;;;;;;12.85;100.00;101073.38;5072424;28;20884;-52
2022/09/24 07:32:55;;;;;;;21.08;16.30;;;;;;;12.89;100.00;101074.03;5070990;28;20059;-54
2022/09/24 07:35:23;;;;;;;21.63;17.15;;;;;;;12.90;100.00;101073.03;5072282;28;20109;-51
2022/09/24 07:37:58;;;;;;;21.95;17.25;;;;;;;12.94;100.00;101077.16;5072508;28;20433;-53
2022/09/24 07:40:26;;;;;;;57.88;43.40;;;;;;;12.99;100.00;101081.19;5072110;28;20060;-53
2022/09/24 07:42:56;;;;;;;137.23;84.80;;;;;;;12.94;100.00;101075.38;5071799;28;20098;-52
2022/09/24 07:45:28;;;;;;;106.97;68.00;;;;;;;12.95;100.00;101084.13;5071993;28;20056;-52
2022/09/24 07:47:58;;;;;;;48.55;36.40;;;;;;;12.98;100.00;101082.13;5071067;28;20075;-51
2022/09/24 07:50:28;;;;;;;31.50;23.95;;;;;;;13.04;100.00;101088.75;5072183;28;20048;-54
2022/09/24 07:52:56;;;;;;;23.33;18.17;;;;;;;13.00;100.00;101085.47;5071357;28;20044;-53
2022/09/24 07:55:25;;;;;;;24.05;17.15;;;;;;;13.11;100.00;101086.53;5072052;28;20056;-54
2022/09/24 07:57:55;;;;;;;22.05;17.10;;;;;;;13.11;100.00;101090.00;5071756;28;20102;-53
2022/09/24 08:00:25;;;;;;;21.02;17.00;;;;;;;13.14;100.00;101089.78;5072139;28;20040;-52
2022/09/24 08:02:55;;;;;;;22.63;16.50;;;;;;;13.04;100.00;101096.69;5070494;28;20041;-52
2022/09/24 08:05:24;;;;;;;21.45;16.88;;;;;;;13.00;100.00;101096.03;5071656;28;20076;-52
2022/09/24 08:07:52;;;;;;;20.80;16.33;;;;;;;13.07;100.00;101093.81;5072226;28;20044;-49
2022/09/24 08:10:21;;;;;;;26.25;17.23;;;;;;;13.05;100.00;101100.16;5071552;28;20040;-50
2022/09/24 08:12:49;;;;;;;21.58;16.63;;;;;;;13.08;100.00;101095.50;5069786;28;20048;-52
2022/09/24 08:15:18;;;;;;;21.40;16.77;;;;;;;13.04;100.00;101098.47;5071918;28;20594;-49
2022/09/24 08:17:47;;;;;;;21.38;17.40;;;;;;;13.01;100.00;101096.91;5070133;28;20048;-51
2022/09/24 08:20:15;;;;;;;19.70;15.73;;;;;;;13.11;100.00;101105.84;5070001;28;20072;-52
2022/09/24 08:22:43;;;;;;;21.42;15.98;;;;;;;13.19;100.00;101110.56;5072027;28;20041;-48
2022/09/24 08:25:11;;;;;;;21.38;16.77;;;;;;;13.14;100.00;101107.41;5071489;28;20076;-49
2022/09/24 08:27:40;;;;;;;20.13;17.50;;;;;;;13.17;100.00;101104.53;5070989;28;20080;-50
2022/09/24 08:30:09;;;;;;;18.58;15.15;;;;;;;13.23;100.00;101114.69;5071140;28;20489;-52
2022/09/24 08:32:37;;;;;;;20.17;15.98;;;;;;;13.20;100.00;101112.28;5069979;28;20074;-53
2022/09/24 08:35:08;;;;;;;20.58;16.73;;;;;;;13.17;100.00;101105.41;5070691;28;20090;-52
2022/09/24 08:37:36;;;;;;;20.30;15.70;;;;;;;13.19;100.00;101113.22;5071495;28;20048;-52
2022/09/24 08:40:05;;;;;;;21.00;15.75;;;;;;;13.23;100.00;101119.13;5071140;28;20044;-53
2022/09/24 08:42:42;;;;;;;20.45;16.20;;;;;;;13.23;100.00;101113.84;5070982;28;20135;-52
2022/09/24 08:48:01;;;;;;;19.65;15.07;;;;;;;13.27;100.00;101131.16;5069767;28;20407;-53
2022/09/24 08:50:35;;;;;;;22.65;15.63;;;;;;;13.29;100.00;101129.25;5071234;28;20109;-53
2022/09/24 08:53:12;;;;;;;18.75;15.32;;;;;;;13.27;100.00;101129.34;5071029;28;20044;-52
2022/09/24 08:55:47;;;;;;;18.67;15.02;;;;;;;13.30;100.00;101137.03;5070892;28;20115;-50
2022/09/24 08:58:29;;;;;;;21.10;16.38;;;;;;;13.26;100.00;101135.56;5070712;28;20394;-53
2022/09/24 09:01:07;;;;;;;17.80;14.93;;;;;;;13.28;100.00;101131.03;5069975;28;20048;-53
2022/09/24 09:03:42;;;;;;;20.02;14.77;;;;;;;13.29;100.00;101134.53;5070198;28;20048;-52
2022/09/24 09:06:25;;;;;;;21.15;15.82;;;;;;;13.32;100.00;101140.44;5070652;28;20422;-53
2022/09/24 09:08:57;;;;;;;;;;;;;;;13.32;100.00;101140.44;5071402;28;20052;-52
2022/09/24 09:11:46;;;;;;;21.95;15.23;;;;;;;13.26;100.00;101143.50;5070316;28;19925;-51
2022/09/24 09:14:17;;;;;;;18.75;15.40;;;;;;;13.32;100.00;101144.84;5070661;28;20036;-51
2022/09/24 09:16:52;;;;;;;20.05;15.25;;;;;;;13.38;100.00;101143.63;5069015;28;20139;-50
2022/09/24 09:19:25;;;;;;;19.00;14.77;;;;;;;13.40;100.00;101147.81;5070590;28;20052;-51
2022/09/24 09:21:59;;;;;;;22.35;15.73;;;;;;;13.48;100.00;101149.91;5070745;28;20049;-50
2022/09/24 09:24:39;;;;;;;19.20;15.90;;;;;;;13.49;100.00;101148.97;5070388;28;20071;-52
2022/09/24 09:27:14;;;;;;;19.52;15.23;;;;;;;13.48;100.00;101152.56;5069369;28;20454;-53
2022/09/24 09:29:42;;;;;;;20.15;15.27;;;;;;;13.53;100.00;101150.44;5070984;28;20395;-53
2022/09/24 09:32:21;;;;;;;20.73;16.23;;;;;;;13.53;100.00;101158.34;5067570;28;20052;-50
2022/09/24 09:34:57;;;;;;;19.90;15.48;;;;;;;13.59;100.00;101157.06;5070122;28;20045;-53
2022/09/24 09:37:36;;;;;;;19.58;15.65;;;;;;;13.58;100.00;101153.59;5070508;28;20369;-54
2022/09/24 09:40:30;;;;;;;21.08;15.52;;;;;;;13.61;100.00;101157.81;5069900;28;20391;-53
2022/09/24 09:43:02;;;;;;;19.15;14.82;;;;;;;13.64;100.00;101157.56;5069830;28;20102;-55
2022/09/24 09:45:38;;;;;;;21.45;16.67;;;;;;;13.62;100.00;101157.69;5070169;28;20060;-56
2022/09/24 09:48:11;;;;;;;20.55;15.82;;;;;;;13.63;100.00;101158.53;5067880;28;20479;-55
2022/09/24 09:50:43;;;;;;;21.10;15.80;;;;;;;13.64;100.00;101155.75;5069566;28;20098;-54
2022/09/24 09:53:21;;;;;;;21.43;16.77;;;;;;;13.57;100.00;101167.75;5069738;28;20044;-54
2022/09/24 09:55:54;;;;;;;20.02;16.02;;;;;;;13.63;100.00;101164.66;5069918;28;20048;-54
2022/09/24 09:58:24;;;;;;;21.42;16.50;;;;;;;13.65;100.00;101162.75;5069940;28;20705;-56
2022/09/24 10:01:02;;;;;;;26.63;22.42;;;;;;;13.65;100.00;101161.91;5069818;28;20506;-55
2022/09/24 10:03:33;;;;;;;22.35;18.10;;;;;;;13.72;100.00;101172.88;5069355;28;20072;-54
2022/09/24 10:06:05;;;;;;;21.27;16.52;;;;;;;13.72;100.00;101165.78;5069806;28;20509;-54
2022/09/24 10:08:35;;;;;;;21.70;17.30;;;;;;;13.74;100.00;101174.44;5069696;28;20052;-53
2022/09/24 10:11:03;;;;;;;21.98;16.33;;;;;;;13.70;100.00;101170.31;5068742;28;20052;-57
2022/09/24 10:13:31;;;;;;;21.70;16.17;;;;;;;13.68;100.00;101166.97;5067797;28;20102;-54
2022/09/24 10:16:02;;;;;;;19.95;16.67;;;;;;;13.72;100.00;101172.88;5068520;28;20052;-54
2022/09/24 10:18:34;;;;;;;22.67;17.58;;;;;;;13.76;100.00;101171.69;5064757;28;20136;-55
2022/09/24 10:21:06;;;;;;;21.95;15.88;;;;;;;13.71;100.00;101171.19;5069749;28;20048;-53
2022/09/24 10:23:38;;;;;;;19.63;16.13;;;;;;;13.79;100.00;101163.53;5069532;28;20071;-55
2022/09/24 10:26:08;;;;;;;21.58;16.45;;;;;;;13.81;100.00;101173.03;5068833;28;20051;-53
2022/09/24 10:31:30;;;;;;;20.40;16.50;;;;;;;13.89;100.00;101168.97;5067671;28;20498;-54
2022/09/24 10:34:01;;;;;;;21.15;16.63;;;;;;;13.86;100.00;101170.91;5068924;28;20537;-55
2022/09/24 10:36:32;;;;;;;20.15;15.35;;;;;;;13.85;100.00;101174.50;5069442;28;20043;-55
2022/09/24 10:39:12;;;;;;;20.85;16.75;;;;;;;13.89;100.00;101168.97;5069607;28;20044;-54
2022/09/24 10:41:47;;;;;;;21.17;16.15;;;;;;;13.90;100.00;101171.50;5068827;28;20044;-54
2022/09/24 10:44:16;;;;;;;21.30;16.33;;;;;;;13.86;100.00;101173.56;5070918;28;20377;-55
2022/09/24 10:47:07;;;;;;;20.98;15.55;;;;;;;13.82;100.00;101173.88;5071369;28;20499;-55
2022/09/24 10:49:50;;;;;;;20.52;15.98;;;;;;;13.85;100.00;101177.16;5072743;28;20036;-53
2022/09/24 10:52:33;;;;;;;20.95;16.75;;;;;;;13.87;100.00;101177.03;5072672;28;20092;-54
2022/09/24 10:55:14;;;;;;;20.90;15.85;;;;;;;13.80;100.00;101175.81;5072720;28;20124;-54
2022/09/24 10:57:57;;;;;;;20.58;16.60;;;;;;;13.80;100.00;101171.34;5072246;28;20037;-53
2022/09/24 11:00:36;;;;;;;20.25;16.88;;;;;;;13.84;100.00;101172.81;5072337;28;20055;-53
2022/09/24 11:03:23;;;;;;;19.98;16.00;;;;;;;13.79;100.00;101184.69;5070693;28;20503;-52
2022/09/24 11:05:54;;;;;;;21.27;17.13;;;;;;;13.81;100.00;101182.75;5072382;28;20044;-51
2022/09/24 11:08:41;;;;;;;21.50;16.60;;;;;;;13.86;100.00;101180.63;5072875;28;20063;-53
2022/09/24 11:11:27;;;;;;;21.38;17.23;;;;;;;13.89;100.00;101183.03;5071444;28;20096;-49
2022/09/24 11:14:13;;;;;;;22.00;17.55;;;;;;;13.89;100.00;101180.38;5071572;28;20068;-52
2022/09/24 11:16:59;;;;;;;21.67;18.08;;;;;;;13.84;100.00;101185.19;5070893;28;20091;-53
2022/09/24 11:19:50;;;;;;;22.35;18.00;;;;;;;13.85;100.00;101190.38;5071671;28;20040;-54
2022/09/24 11:22:29;;;;;;;24.58;17.13;;;;;;;13.90;100.00;101194.47;5071847;28;20071;-53
2022/09/24 11:25:23;;;;;;;22.38;17.73;;;;;;;13.80;100.00;101197.78;5072446;28;20044;-53
2022/09/24 11:28:12;;;;;;;24.67;18.15;;;;;;;13.90;100.00;101195.31;5071645;28;20076;-54
2022/09/24 11:30:54;;;;;;;23.42;17.65;;;;;;;13.98;100.00;101192.94;5072105;28;20057;-50
2022/09/24 11:33:36;;;;;;;24.05;17.50;;;;;;;14.05;100.00;101190.69;5070852;28;20052;-53
2022/09/24 11:36:14;;;;;;;23.50;16.92;;;;;;;13.94;100.00;101193.28;5071382;28;20058;-51